createdAt,value
2022-10-18T00:00:39.525Z,94754.65
2022-10-18T00:05:46.770Z,94753.31
2022-10-18T00:10:55.123Z,94746.92
2022-10-18T00:16:05.303Z,94738.92
2022-10-18T00:21:16.367Z,94733.52
2022-10-18T00:26:29.720Z,94727.11
2022-10-18T00:31:39.363Z,94728.45
2022-10-18T00:36:47.561Z,94724.67
2022-10-18T00:41:54.881Z,94722.58
2022-10-18T00:47:08.676Z,94711.59
2022-10-18T00:52:31.037Z,94708.39
2022-10-18T00:57:40.232Z,94702.74
2022-10-18T01:02:48.823Z,94698.20
2022-10-18T01:08:25.250Z,94697.34
2022-10-18T01:14:06.695Z,94689.36
2022-10-18T01:19:43.239Z,94680.14
2022-10-18T01:25:25.313Z,94683.28
2022-10-18T01:30:36.519Z,94675.36
2022-10-18T01:35:47.759Z,94675.36
2022-10-18T01:40:56.249Z,94659.91
2022-10-18T01:46:04.549Z,94660.97
2022-10-18T01:51:11.944Z,94655.11
2022-10-18T01:56:34.939Z,94650.57
2022-10-18T02:02:16.014Z,94648.82
2022-10-18T02:08:00.176Z,94642.22
2022-10-18T02:13:00.674Z,94633.98
2022-10-18T02:18:11.875Z,94629.47
2022-10-18T02:23:22.309Z,94624.97
2022-10-18T02:28:29.742Z,94634.34
2022-10-18T02:34:07.567Z,94628.07
2022-10-18T02:39:18.721Z,94622.80
2022-10-18T02:44:25.815Z,94629.45
2022-10-18T02:49:32.521Z,94624.34
2022-10-18T02:54:39.253Z,94623.49
2022-10-18T02:59:45.919Z,94630.53
2022-10-18T03:04:52.613Z,94623.50
2022-10-18T03:09:59.391Z,94616.37
2022-10-18T03:15:06.919Z,94620.95
2022-10-18T03:20:14.241Z,94616.34
2022-10-18T03:25:23.824Z,94621.36
2022-10-18T03:30:30.543Z,94622.72
2022-10-18T03:35:37.236Z,94617.22
2022-10-18T03:40:43.952Z,94617.41
2022-10-18T03:45:50.687Z,94616.78
2022-10-18T03:50:57.325Z,94613.88
2022-10-18T03:56:04.066Z,94605.98
2022-10-18T04:01:10.815Z,94611.88
2022-10-18T04:06:17.490Z,94610.77
2022-10-18T04:11:24.193Z,94612.16
2022-10-18T04:16:30.971Z,94610.19
2022-10-18T04:21:37.712Z,94608.06
2022-10-18T04:26:44.485Z,94601.27
2022-10-18T04:31:51.208Z,94602.58
2022-10-18T04:36:57.877Z,94607.05
2022-10-18T04:42:04.581Z,94610.02
2022-10-18T04:47:11.275Z,94597.64
2022-10-18T04:52:18.273Z,94591.66
2022-10-18T04:57:25.012Z,94592.69
2022-10-18T05:02:31.978Z,94586.09
2022-10-18T05:07:38.869Z,94593.10
2022-10-18T05:12:45.549Z,94592.09
2022-10-18T05:17:52.667Z,94586.90
2022-10-18T05:23:00.251Z,94582.61
2022-10-18T05:28:15.576Z,94580.93
2022-10-18T05:33:15.728Z,94579.77
2022-10-18T05:38:22.682Z,94575.19
2022-10-18T05:43:32.290Z,94582.09
2022-10-18T05:48:38.994Z,94584.98
2022-10-18T05:53:45.685Z,94579.78
2022-10-18T05:58:53.502Z,94578.11
2022-10-18T06:04:00.243Z,94576.89
2022-10-18T06:09:08.843Z,94577.41
2022-10-18T06:14:15.580Z,94582.95
2022-10-18T06:19:22.276Z,94584.81
2022-10-18T06:24:28.976Z,94581.85
2022-10-18T06:29:37.268Z,94583.95
2022-10-18T06:34:43.996Z,94586.19
2022-10-18T06:39:50.700Z,94585.64
2022-10-18T06:44:57.449Z,94589.02
2022-10-18T06:50:04.119Z,94585.84
2022-10-18T06:55:11.140Z,94594.42
2022-10-18T07:00:18.115Z,94589.08
2022-10-18T07:05:24.833Z,94580.68
2022-10-18T07:10:31.596Z,94583.62
2022-10-18T07:15:38.812Z,94578.34
2022-10-18T07:20:45.473Z,94578.12
2022-10-18T07:25:52.654Z,94579.50
2022-10-18T07:31:03.645Z,94571.86
2022-10-18T07:36:10.398Z,94577.80
2022-10-18T07:41:17.395Z,94571.98
2022-10-18T07:46:24.817Z,94573.09
2022-10-18T07:51:33.016Z,94574.42
2022-10-18T07:56:39.739Z,94574.72
2022-10-18T08:01:46.458Z,94579.24
2022-10-18T08:06:53.132Z,94569.65
2022-10-18T08:11:59.833Z,94570.72
2022-10-18T08:17:06.764Z,94570.20
2022-10-18T08:22:13.460Z,94574.73
2022-10-18T08:27:20.654Z,94573.93
2022-10-18T08:32:28.866Z,94574.73
2022-10-18T08:37:36.040Z,94576.88
2022-10-18T08:43:05.018Z,94580.34
2022-10-18T08:48:34.157Z,94580.81
2022-10-18T08:53:51.157Z,94571.42
2022-10-18T08:58:58.301Z,94563.66
2022-10-18T09:04:27.471Z,94567.58
2022-10-18T09:10:01.811Z,94561.42
2022-10-18T09:15:36.692Z,94555.27
2022-10-18T09:20:59.070Z,94549.48
2022-10-18T09:26:24.346Z,94550.30
2022-10-18T09:32:05.253Z,94553.19
2022-10-18T09:37:15.263Z,94541.97
2022-10-18T09:42:37.942Z,94532.00
2022-10-18T09:47:51.716Z,94539.88
2022-10-18T09:53:38.422Z,94528.44
2022-10-18T09:58:51.958Z,94524.41
2022-10-18T10:03:59.096Z,94528.79
2022-10-18T10:09:18.448Z,94517.64
2022-10-18T10:14:30.593Z,94515.19
2022-10-18T10:20:05.642Z,94515.30
2022-10-18T10:25:34.549Z,94517.11
2022-10-18T10:30:41.621Z,94510.30
2022-10-18T10:35:53.485Z,94500.02
2022-10-18T10:40:59.662Z,94488.33
2022-10-18T10:46:15.737Z,94491.91
2022-10-18T10:51:38.907Z,94485.77
2022-10-18T10:57:08.646Z,94473.56
2022-10-18T11:02:25.303Z,94466.64
2022-10-18T11:07:39.663Z,94465.55
2022-10-18T11:13:03.940Z,94466.14
2022-10-18T11:18:23.484Z,94453.71
2022-10-18T11:23:36.617Z,94447.06
2022-10-18T11:29:19.291Z,94441.55
2022-10-18T11:34:48.311Z,94437.08
2022-10-18T11:40:17.131Z,94433.23
2022-10-18T11:46:01.052Z,94430.41
2022-10-18T11:51:34.393Z,94419.94
2022-10-18T11:57:13.322Z,94423.66
2022-10-18T12:02:30.703Z,94415.31
2022-10-18T12:07:45.531Z,94407.91
2022-10-18T12:12:59.530Z,94408.81
2022-10-18T12:18:16.423Z,94391.93
2022-10-18T12:23:35.159Z,94400.52
2022-10-18T12:29:11.512Z,94395.77
2022-10-18T12:34:28.774Z,94391.34
2022-10-18T12:40:05.390Z,94381.53
2022-10-18T12:45:16.196Z,94380.51
2022-10-18T12:50:36.699Z,94382.18
2022-10-18T12:55:47.912Z,94370.33
2022-10-18T13:00:58.209Z,94371.22
2022-10-18T13:06:06.745Z,94381.77
2022-10-18T13:11:18.138Z,94370.80
2022-10-18T13:16:54.582Z,94372.38
2022-10-18T13:22:14.852Z,94375.06
2022-10-18T13:27:47.388Z,94363.59
2022-10-18T13:33:10.896Z,94363.20
2022-10-18T13:38:59.213Z,94367.58
2022-10-18T13:44:36.834Z,94360.64
2022-10-18T13:49:59.194Z,94358.71
2022-10-18T13:55:56.428Z,94361.78
2022-10-18T14:01:14.084Z,94359.56
2022-10-18T14:06:25.489Z,94358.77
2022-10-18T14:11:53.907Z,94358.20
2022-10-18T14:17:24.348Z,94358.75
2022-10-18T14:22:56.252Z,94358.17
2022-10-18T14:28:11.555Z,94357.00
2022-10-18T14:33:38.279Z,94358.80
2022-10-18T14:39:05.656Z,94360.67
2022-10-18T14:44:19.845Z,94361.55
2022-10-18T14:49:26.577Z,94356.83
2022-10-18T14:54:40.359Z,94352.33
2022-10-18T14:59:56.114Z,94349.55
2022-10-18T15:05:12.838Z,94350.70
2022-10-18T15:10:29.637Z,94352.89
2022-10-18T15:15:38.313Z,94354.78
2022-10-18T15:20:45.499Z,94344.66
2022-10-18T15:25:54.622Z,94347.16
2022-10-18T15:31:02.454Z,94344.46
2022-10-18T15:36:16.283Z,94341.77
2022-10-18T15:41:49.254Z,94340.91
2022-10-18T15:47:00.319Z,94340.50
2022-10-18T15:52:39.030Z,94339.34
2022-10-18T15:57:46.627Z,94349.72
2022-10-18T16:02:53.842Z,94347.28
2022-10-18T16:08:00.758Z,94349.96
2022-10-18T16:13:07.520Z,94355.53
2022-10-18T16:18:21.002Z,94352.45
2022-10-18T16:23:30.500Z,94367.02
2022-10-18T16:28:37.224Z,94361.80
2022-10-18T16:33:44.492Z,94367.63
2022-10-18T16:38:52.547Z,94368.35
2022-10-18T16:43:59.232Z,94375.13
2022-10-18T16:49:07.737Z,94381.84
2022-10-18T16:54:14.446Z,94377.88
2022-10-18T16:59:31.554Z,94391.33
2022-10-18T17:04:38.557Z,94396.95
2022-10-18T17:09:45.557Z,94400.14
2022-10-18T17:14:52.423Z,94403.61
2022-10-18T17:19:59.244Z,94404.98
2022-10-18T17:25:06.492Z,94403.37
2022-10-18T17:30:15.438Z,94410.30
2022-10-18T17:35:22.317Z,94407.13
2022-10-18T17:40:29.939Z,94421.57
2022-10-18T17:45:37.074Z,94418.08
2022-10-18T17:50:44.686Z,94418.91
2022-10-18T17:55:51.540Z,94405.53
2022-10-18T18:00:58.407Z,94399.91
2022-10-18T18:06:21.512Z,94399.34
2022-10-18T18:11:29.641Z,94393.44
2022-10-18T18:16:38.197Z,94386.84
2022-10-18T18:21:46.266Z,94394.82
2022-10-18T18:26:55.793Z,94390.59
2022-10-18T18:32:03.868Z,94391.03
2022-10-18T18:37:11.958Z,94385.06
2022-10-18T18:42:18.839Z,94372.93
2022-10-18T18:47:25.695Z,94373.53
2022-10-18T18:52:33.028Z,94370.27
2022-10-18T18:57:40.325Z,94367.39
2022-10-18T19:02:47.183Z,94361.79
2022-10-18T19:07:54.207Z,94362.09
2022-10-18T19:13:00.964Z,94364.04
2022-10-18T19:18:07.788Z,94358.72
2022-10-18T19:23:15.015Z,94364.34
2022-10-18T19:28:22.110Z,94362.45
2022-10-18T19:33:41.371Z,94355.53
2022-10-18T19:38:37.768Z,94350.98
2022-10-18T19:43:44.479Z,94358.83
2022-10-18T19:48:51.529Z,94353.66
2022-10-18T19:53:59.532Z,94353.83
2022-10-18T19:59:06.602Z,94349.85
2022-10-18T20:04:15.369Z,94357.41
2022-10-18T20:09:23.387Z,94349.38
2022-10-18T20:14:30.468Z,94360.31
2022-10-18T20:19:37.355Z,94363.53
2022-10-18T20:24:44.217Z,94360.33
2022-10-18T20:29:51.432Z,94358.27
2022-10-18T20:34:58.923Z,94348.59
2022-10-18T20:40:06.025Z,94358.02
2022-10-18T20:45:13.132Z,94360.97
2022-10-18T20:50:20.185Z,94369.53
2022-10-18T20:55:27.011Z,94369.27
2022-10-18T21:00:35.573Z,94358.88
2022-10-18T21:05:42.608Z,94364.75
2022-10-18T21:10:49.671Z,94359.16
2022-10-18T21:15:58.583Z,94351.08
2022-10-18T21:21:20.209Z,94345.81
2022-10-18T21:26:29.300Z,94342.92
2022-10-18T21:31:42.044Z,94349.84
2022-10-18T21:36:50.372Z,94345.59
2022-10-18T21:41:57.152Z,94342.40
2022-10-18T21:47:04.007Z,94345.33
2022-10-18T21:52:11.010Z,94333.83
2022-10-18T21:57:18.154Z,94329.63
2022-10-18T22:02:25.608Z,94330.42
2022-10-18T22:07:33.048Z,94321.35
2022-10-18T22:12:40.325Z,94319.42
2022-10-18T22:17:47.055Z,94319.13
2022-10-18T22:22:56.050Z,94317.49
2022-10-18T22:28:03.262Z,94308.69
2022-10-18T22:33:10.450Z,94314.86
2022-10-18T22:38:17.237Z,94303.61
2022-10-18T22:43:24.170Z,94298.39
2022-10-18T22:48:31.736Z,94302.19
2022-10-18T22:53:41.089Z,94303.83
2022-10-18T22:58:48.737Z,94285.59
2022-10-18T23:03:58.347Z,94279.38
2022-10-18T23:09:09.098Z,94280.77
2022-10-18T23:14:16.277Z,94271.19
2022-10-18T23:19:23.465Z,94275.58
2022-10-18T23:24:31.295Z,94276.66
2022-10-18T23:29:38.122Z,94272.60
2022-10-18T23:34:44.857Z,94275.73
2022-10-18T23:39:52.084Z,94289.75
2022-10-18T23:44:58.921Z,94295.65
2022-10-18T23:50:07.246Z,94285.42
2022-10-18T23:55:14.025Z,94293.89
